createdAt,value
2022-10-28T14:30:25.267Z,98219.28
2022-10-28T14:33:26.515Z,98214.63
2022-10-28T14:36:09.108Z,98212.63
2022-10-28T14:38:51.753Z,98218.75
2022-10-28T14:41:37.018Z,98220.63
2022-10-28T14:44:14.730Z,98221.88
2022-10-28T14:46:56.166Z,98229.44
2022-10-28T14:49:27.858Z,98229.41
2022-10-28T14:51:56.109Z,98223.13
2022-10-28T14:54:40.560Z,98226.41
2022-10-28T14:57:09.537Z,98212.69
2022-10-28T14:59:39.368Z,98207.19
2022-10-28T15:02:17.264Z,98211.25
2022-10-28T15:04:45.887Z,98203.25
2022-10-28T15:07:16.253Z,98212.69
2022-10-28T15:09:46.197Z,98217.06
2022-10-28T15:12:17.520Z,98220.53
2022-10-28T15:14:48.451Z,98219.69
2022-10-28T15:17:20.497Z,98218.09
2022-10-28T15:19:51.018Z,98224.38
2022-10-28T15:22:21.788Z,98225.31
2022-10-28T15:24:58.023Z,98227.34
2022-10-28T15:27:28.097Z,98227.00
2022-10-28T15:29:57.852Z,98228.53
2022-10-28T15:32:30.480Z,98234.00
2022-10-28T15:34:58.953Z,98238.22
2022-10-28T15:37:29.522Z,98230.94
2022-10-28T15:40:14.141Z,98237.94
2022-10-28T15:42:45.765Z,98235.50
2022-10-28T15:45:18.667Z,98242.41
2022-10-28T15:47:49.796Z,98240.75
2022-10-28T15:50:30.956Z,98232.66
2022-10-28T15:53:39.174Z,98241.69
2022-10-28T15:56:25.304Z,98231.25
2022-10-28T15:59:07.198Z,98236.22
2022-10-28T16:01:39.906Z,98250.25
2022-10-28T16:04:43.437Z,98251.47
2022-10-28T16:07:11.218Z,98250.28
2022-10-28T16:09:45.558Z,98243.00
2022-10-28T16:12:16.844Z,98232.03
2022-10-28T16:14:46.872Z,98234.94
2022-10-28T16:17:18.014Z,98238.69
2022-10-28T16:19:52.409Z,98243.44
2022-10-28T16:22:22.270Z,98228.78
2022-10-28T16:24:52.078Z,98243.09
2022-10-28T16:27:22.420Z,98250.72
2022-10-28T16:29:50.679Z,98247.16
